createdAt,value
2023-05-11T00:00:52.233Z,98225.09
2023-05-11T00:05:54.983Z,98230.84
2023-05-11T00:11:00.716Z,98229.59
2023-05-11T00:16:05.476Z,98224.09
2023-05-11T00:21:08.533Z,98217.09
2023-05-11T00:26:11.338Z,98212.31
2023-05-11T00:31:15.844Z,98211.88
2023-05-11T00:36:18.644Z,98213.31
2023-05-11T00:41:21.637Z,98209.06
2023-05-11T00:46:26.267Z,98216.09
2023-05-11T00:51:29.673Z,98214.72
2023-05-11T00:56:32.420Z,98210.34
2023-05-11T01:01:39.144Z,98218.34
2023-05-11T01:06:49.096Z,98219.50
2023-05-11T01:12:01.557Z,98221.19
2023-05-11T01:17:17.605Z,98213.47
2023-05-11T01:22:32.108Z,98208.25
2023-05-11T01:28:09.548Z,98208.00
2023-05-11T01:33:15.909Z,98199.69
2023-05-11T01:38:22.524Z,98198.44
2023-05-11T01:43:28.895Z,98201.66
2023-05-11T01:48:39.343Z,98198.41
2023-05-11T01:53:43.542Z,98201.09
2023-05-11T01:58:48.958Z,98213.28
2023-05-11T02:03:56.321Z,98214.97
2023-05-11T02:09:01.710Z,98223.91
2023-05-11T02:14:06.684Z,98228.94
2023-05-11T02:19:13.348Z,98227.22
2023-05-11T02:24:17.508Z,98221.59
2023-05-11T02:29:20.369Z,98223.50
2023-05-11T02:34:28.670Z,98227.53
2023-05-11T02:39:36.095Z,98223.34
2023-05-11T02:44:40.272Z,98224.53
2023-05-11T02:49:46.530Z,98222.78
2023-05-11T02:54:51.438Z,98218.00
2023-05-11T02:59:54.789Z,98214.31
2023-05-11T03:04:59.782Z,98217.59
2023-05-11T03:10:06.186Z,98215.09
2023-05-11T03:15:13.923Z,98214.66
2023-05-11T03:20:23.257Z,98224.81
2023-05-11T03:25:27.083Z,98214.84
2023-05-11T03:30:31.139Z,98216.91
2023-05-11T03:35:37.624Z,98217.16
2023-05-11T03:40:42.522Z,98225.41
2023-05-11T03:45:46.531Z,98222.50
2023-05-11T03:50:51.306Z,98221.06
2023-05-11T03:55:54.830Z,98222.03
2023-05-11T04:00:58.276Z,98219.38
2023-05-11T04:06:03.033Z,98216.56
2023-05-11T04:11:08.744Z,98216.72
2023-05-11T04:16:15.243Z,98226.50
2023-05-11T04:21:19.388Z,98223.03
2023-05-11T04:26:22.550Z,98227.03
2023-05-11T04:31:25.927Z,98229.69
2023-05-11T04:36:30.396Z,98230.13
2023-05-11T04:41:33.300Z,98235.09
2023-05-11T04:46:38.441Z,98243.13
2023-05-11T04:51:43.641Z,98239.94
2023-05-11T04:56:46.928Z,98241.72
2023-05-11T05:01:50.679Z,98242.59
2023-05-11T05:06:54.821Z,98249.41
2023-05-11T05:11:58.148Z,98250.63
2023-05-11T05:17:01.919Z,98254.09
2023-05-11T05:22:09.215Z,98263.41
2023-05-11T05:27:12.611Z,98264.16
2023-05-11T05:32:16.971Z,98265.19
2023-05-11T05:37:22.961Z,98275.31
2023-05-11T05:42:26.915Z,98275.50
2023-05-11T05:47:30.505Z,98271.44
2023-05-11T05:52:35.323Z,98280.88
2023-05-11T05:57:38.844Z,98277.22
2023-05-11T06:02:43.369Z,98281.56
2023-05-11T06:08:09.105Z,98275.94
2023-05-11T06:13:13.578Z,98285.25
2023-05-11T06:18:20.056Z,98294.38
2023-05-11T06:23:28.900Z,98293.50
2023-05-11T06:28:33.993Z,98289.16
2023-05-11T06:33:40.440Z,98290.13
2023-05-11T06:38:50.033Z,98293.91
2023-05-11T06:43:53.296Z,98291.53
2023-05-11T06:49:02.284Z,98288.66
2023-05-11T06:54:07.766Z,98285.19
2023-05-11T06:59:12.803Z,98284.31
2023-05-11T07:04:15.710Z,98284.88
2023-05-11T07:09:20.002Z,98287.00
2023-05-11T07:14:22.895Z,98283.97
2023-05-11T07:19:26.032Z,98282.28
2023-05-11T07:24:30.158Z,98283.06
2023-05-11T07:29:32.905Z,98292.28
2023-05-11T07:34:35.632Z,98292.50
2023-05-11T07:39:41.059Z,98294.66
2023-05-11T07:44:45.068Z,98292.47
2023-05-11T07:49:48.645Z,98289.72
2023-05-11T07:54:52.720Z,98292.63
2023-05-11T07:59:56.015Z,98288.50
2023-05-11T08:04:59.584Z,98292.88
2023-05-11T08:10:03.738Z,98296.50
2023-05-11T08:15:07.337Z,98285.56
2023-05-11T08:20:10.980Z,98291.63
2023-05-11T08:25:16.421Z,98295.88
2023-05-11T08:30:23.954Z,98300.66
2023-05-11T08:35:27.171Z,98299.94
2023-05-11T08:40:32.253Z,98291.41
2023-05-11T08:45:39.815Z,98296.00
2023-05-11T08:50:44.444Z,98295.16
2023-05-11T08:55:51.925Z,98298.19
2023-05-11T09:00:56.151Z,98305.44
2023-05-11T09:06:01.135Z,98309.06
2023-05-11T09:11:06.341Z,98303.91
2023-05-11T09:16:23.471Z,98311.22
2023-05-11T09:21:32.808Z,98312.34
2023-05-11T09:26:37.409Z,98311.50
2023-05-11T09:31:41.868Z,98302.59
2023-05-11T09:36:45.616Z,98306.44
2023-05-11T09:41:51.372Z,98297.22
2023-05-11T09:47:11.733Z,98300.75
2023-05-11T09:52:17.566Z,98304.22
2023-05-11T09:57:26.664Z,98300.22
2023-05-11T10:02:31.327Z,98296.34
2023-05-11T10:07:36.197Z,98303.19
2023-05-11T10:12:40.637Z,98295.00
2023-05-11T10:17:45.695Z,98295.78
2023-05-11T10:22:49.005Z,98288.72
2023-05-11T10:27:55.816Z,98281.78
2023-05-11T10:33:00.473Z,98272.31
2023-05-11T10:38:03.515Z,98272.75
2023-05-11T10:43:26.219Z,98279.22
2023-05-11T10:48:58.238Z,98270.22
2023-05-11T10:54:18.211Z,98268.59
2023-05-11T10:59:53.612Z,98265.22
2023-05-11T11:04:58.689Z,98266.09
2023-05-11T11:10:06.285Z,98272.19
2023-05-11T11:15:13.365Z,98265.78
2023-05-11T11:20:50.305Z,98256.75
2023-05-11T11:25:55.278Z,98250.13
2023-05-11T11:31:32.405Z,98252.91
2023-05-11T11:37:06.102Z,98245.94
2023-05-11T11:42:10.486Z,98252.63
2023-05-11T11:47:17.258Z,98245.81
2023-05-11T11:52:36.160Z,98240.06
2023-05-11T11:57:49.120Z,98238.28
2023-05-11T12:02:55.129Z,98241.94
2023-05-11T12:08:01.100Z,98238.63
2023-05-11T12:13:07.626Z,98238.50
2023-05-11T12:18:22.940Z,98232.94
2023-05-11T12:23:25.743Z,98235.91
2023-05-11T12:28:28.451Z,98233.22
2023-05-11T12:33:33.445Z,98237.94
2023-05-11T12:38:44.428Z,98230.09
2023-05-11T12:43:47.650Z,98233.91
2023-05-11T12:48:52.657Z,98230.34
2023-05-11T12:53:58.373Z,98231.94
2023-05-11T12:59:02.073Z,98217.72
2023-05-11T13:04:07.789Z,98211.81
2023-05-11T13:09:11.375Z,98218.22
2023-05-11T13:14:20.021Z,98213.09
2023-05-11T13:19:31.157Z,98205.94
2023-05-11T13:24:34.778Z,98208.69
2023-05-11T13:29:39.555Z,98202.13
2023-05-11T13:34:43.859Z,98209.81
2023-05-11T13:39:46.604Z,98206.22
2023-05-11T13:44:50.394Z,98203.66
2023-05-11T13:49:56.183Z,98205.81
2023-05-11T13:55:02.452Z,98200.91
2023-05-11T14:00:10.386Z,98200.59
2023-05-11T14:05:19.421Z,98208.03
2023-05-11T14:10:24.933Z,98199.97
2023-05-11T14:15:30.132Z,98202.66
2023-05-11T14:20:34.380Z,98191.16
2023-05-11T14:25:37.168Z,98195.66
2023-05-11T14:30:39.972Z,98192.75
2023-05-11T14:35:45.439Z,98197.78
2023-05-11T14:40:51.733Z,98198.19
2023-05-11T14:45:56.240Z,98193.34
2023-05-11T14:51:00.349Z,98191.81
2023-05-11T14:56:04.544Z,98189.22
2023-05-11T15:01:08.204Z,98185.13
2023-05-11T15:06:12.440Z,98191.41
2023-05-11T15:11:16.108Z,98187.84
2023-05-11T15:16:18.993Z,98186.88
2023-05-11T15:21:23.432Z,98185.59
2023-05-11T15:26:27.194Z,98192.25
2023-05-11T15:31:30.153Z,98185.72
2023-05-11T15:36:35.212Z,98185.66
2023-05-11T15:41:37.976Z,98185.09
2023-05-11T15:46:41.463Z,98186.91
2023-05-11T15:51:46.417Z,98190.31
2023-05-11T15:56:49.329Z,98187.13
2023-05-11T16:01:52.166Z,98184.28
2023-05-11T16:06:58.760Z,98190.34
2023-05-11T16:12:01.969Z,98195.56
2023-05-11T16:17:05.140Z,98193.91
2023-05-11T16:22:09.326Z,98190.31
2023-05-11T16:27:13.723Z,98190.66
2023-05-11T16:32:16.493Z,98190.00
2023-05-11T16:37:20.693Z,98193.53
2023-05-11T16:42:25.700Z,98189.28
2023-05-11T16:47:28.549Z,98191.25
2023-05-11T16:52:34.718Z,98189.38
2023-05-11T16:57:37.953Z,98191.19
2023-05-11T17:02:43.110Z,98186.00
2023-05-11T17:07:47.304Z,98192.53
2023-05-11T17:12:50.158Z,98191.59
2023-05-11T17:17:53.603Z,98191.91
2023-05-11T17:22:58.542Z,98197.75
2023-05-11T17:28:01.551Z,98202.53
2023-05-11T17:33:04.679Z,98210.03
2023-05-11T17:38:09.607Z,98209.66
2023-05-11T17:43:13.972Z,98210.41
2023-05-11T17:48:16.815Z,98204.06
2023-05-11T17:53:21.597Z,98210.19
2023-05-11T17:58:26.416Z,98207.78
2023-05-11T18:03:29.947Z,98209.75
2023-05-11T18:08:37.626Z,98215.34
2023-05-11T18:13:41.393Z,98217.28
2023-05-11T18:18:44.904Z,98216.94
2023-05-11T18:23:49.115Z,98218.00
2023-05-11T18:28:51.907Z,98223.13
2023-05-11T18:33:55.908Z,98220.09
2023-05-11T18:38:59.991Z,98225.81
2023-05-11T18:44:04.652Z,98228.91
2023-05-11T18:49:07.623Z,98237.81
2023-05-11T18:54:14.359Z,98234.75
2023-05-11T18:59:17.176Z,98238.63
2023-05-11T19:04:22.949Z,98239.56
2023-05-11T19:09:28.964Z,98248.16
2023-05-11T19:14:34.766Z,98244.41
2023-05-11T19:19:38.341Z,98251.72
2023-05-11T19:24:44.708Z,98256.13
2023-05-11T19:29:50.732Z,98263.63
2023-05-11T19:34:53.568Z,98260.84
2023-05-11T19:40:11.462Z,98267.31
2023-05-11T19:45:21.145Z,98269.84
2023-05-11T19:50:26.463Z,98265.22
2023-05-11T19:55:31.059Z,98274.22
2023-05-11T20:00:35.525Z,98272.50
2023-05-11T20:05:38.361Z,98286.16
2023-05-11T20:10:42.726Z,98278.31
2023-05-11T20:15:45.508Z,98275.53
2023-05-11T20:20:48.254Z,98280.19
2023-05-11T20:25:52.664Z,98279.19
2023-05-11T20:30:58.223Z,98274.41
2023-05-11T20:36:01.236Z,98280.19
2023-05-11T20:41:05.470Z,98274.97
2023-05-11T20:46:08.373Z,98269.75
2023-05-11T20:51:11.190Z,98265.84
2023-05-11T20:56:15.284Z,98265.41
2023-05-11T21:01:18.345Z,98264.72
2023-05-11T21:06:21.568Z,98268.53
2023-05-11T21:11:25.684Z,98263.63
2023-05-11T21:16:28.478Z,98260.25
2023-05-11T21:21:31.713Z,98265.88
2023-05-11T21:26:35.927Z,98260.53
2023-05-11T21:31:38.735Z,98257.88
2023-05-11T21:36:42.012Z,98254.22
2023-05-11T21:41:46.135Z,98254.63
2023-05-11T21:46:49.120Z,98256.06
2023-05-11T21:51:52.256Z,98261.25
2023-05-11T21:56:56.395Z,98249.84
2023-05-11T22:01:59.207Z,98250.72
2023-05-11T22:07:02.158Z,98247.06
2023-05-11T22:12:07.841Z,98250.72
2023-05-11T22:17:10.863Z,98250.16
2023-05-11T22:22:13.645Z,98250.72
2023-05-11T22:27:17.732Z,98246.91
2023-05-11T22:32:21.635Z,98258.28
2023-05-11T22:37:24.869Z,98250.75
2023-05-11T22:42:30.784Z,98253.81
2023-05-11T22:47:33.825Z,98252.03
2023-05-11T22:52:37.503Z,98258.19
2023-05-11T22:57:41.566Z,98245.53
2023-05-11T23:02:44.409Z,98250.34
2023-05-11T23:07:47.311Z,98247.22
2023-05-11T23:12:51.363Z,98239.94
2023-05-11T23:17:54.161Z,98241.06
2023-05-11T23:22:57.025Z,98238.22
2023-05-11T23:28:01.181Z,98233.03
2023-05-11T23:33:04.034Z,98224.63
2023-05-11T23:38:06.851Z,98221.97
2023-05-11T23:43:10.994Z,98213.94
2023-05-11T23:48:14.001Z,98212.38
2023-05-11T23:53:16.783Z,98213.25
2023-05-11T23:58:20.894Z,98207.75
